Terminal Aerodrome Forecast
Issued by NWS

Home | Current Version | Previous Version | Text Only | Print | Product List | Glossary On
Versions: 1 2 3 4 5 6 7 8 9 10 11 12 13 14 15 16 17 18
000
FTUS41 KRNK 201720
TAFLWB
TAF
KLWB 201720Z 2018/2118 29005KT P6SM VCSH SCT060
     FM202000 29005KT P6SM SCT060
     FM211600 29006KT P6SM VCTS BKN060CB=

USA.gov is the U.S. government's official web portal to all federal, state and local government web resources and services.